createdAt,value
2023-04-17T00:01:16.659Z,22.30
2023-04-17T00:06:20.423Z,19.40
2023-04-17T00:11:23.121Z,17.73
2023-04-17T00:16:27.402Z,20.13
2023-04-17T00:21:33.074Z,21.85
2023-04-17T00:26:35.965Z,22.42
2023-04-17T00:31:39.291Z,29.50
2023-04-17T00:36:41.753Z,26.30
2023-04-17T00:41:44.589Z,30.25
2023-04-17T00:46:49.034Z,21.40
2023-04-17T00:51:53.146Z,21.30
2023-04-17T00:56:57.884Z,22.98
2023-04-17T01:02:02.362Z,18.58
2023-04-17T01:07:05.621Z,20.02
2023-04-17T01:12:24.643Z,22.45
2023-04-17T01:17:27.985Z,19.58
2023-04-17T01:22:30.511Z,17.65
2023-04-17T01:27:35.326Z,19.48
2023-04-17T01:32:38.320Z,22.15
2023-04-17T01:37:41.433Z,24.88
2023-04-17T01:42:44.263Z,20.95
2023-04-17T01:47:47.557Z,19.45
2023-04-17T01:52:50.461Z,23.08
2023-04-17T01:57:53.701Z,23.45
2023-04-17T02:02:56.983Z,22.42
2023-04-17T02:07:59.359Z,24.25
2023-04-17T02:13:02.122Z,22.75
2023-04-17T02:18:09.532Z,23.27
2023-04-17T02:23:12.489Z,25.52
2023-04-17T02:28:15.858Z,26.02
2023-04-17T02:33:18.547Z,24.67
2023-04-17T02:38:22.794Z,30.92
2023-04-17T02:43:25.447Z,29.13
2023-04-17T02:48:27.722Z,30.98
2023-04-17T02:53:30.632Z,30.40
2023-04-17T02:58:32.993Z,36.83
2023-04-17T03:03:35.849Z,31.45
2023-04-17T03:08:45.608Z,38.75
2023-04-17T03:13:48.129Z,32.13
2023-04-17T03:18:50.637Z,30.30
2023-04-17T03:23:53.070Z,27.27
2023-04-17T03:28:57.630Z,35.55
2023-04-17T03:34:01.037Z,21.80
2023-04-17T03:39:03.909Z,25.40
2023-04-17T03:44:09.601Z,25.70
2023-04-17T03:49:12.645Z,43.15
2023-04-17T03:54:16.390Z,32.92
2023-04-17T03:59:21.181Z,24.63
2023-04-17T04:04:26.142Z,14.88
2023-04-17T04:09:38.410Z,16.73
2023-04-17T04:14:43.167Z,22.17
2023-04-17T04:19:48.071Z,18.88
2023-04-17T04:24:54.478Z,14.57
2023-04-17T04:30:06.178Z,13.27
2023-04-17T04:35:14.376Z,9.38
2023-04-17T04:40:18.257Z,12.02
2023-04-17T04:45:21.502Z,12.60
2023-04-17T04:50:24.742Z,10.38
2023-04-17T04:55:30.886Z,13.95
2023-04-17T05:00:34.260Z,12.05
2023-04-17T05:05:37.947Z,18.60
2023-04-17T05:10:41.069Z,15.70
2023-04-17T05:15:44.299Z,8.68
2023-04-17T05:20:48.188Z,13.93
2023-04-17T05:25:51.499Z,17.20
2023-04-17T05:30:57.805Z,14.73
2023-04-17T05:36:09.877Z,13.30
2023-04-17T05:41:18.078Z,15.10
2023-04-17T05:46:22.114Z,13.40
2023-04-17T05:51:25.147Z,10.80
2023-04-17T05:56:28.595Z,16.23
2023-04-17T06:01:32.798Z,17.48
2023-04-17T06:06:35.924Z,12.20
2023-04-17T06:11:38.455Z,7.38
2023-04-17T06:16:42.715Z,9.52
2023-04-17T06:31:51.616Z,21.67
2023-04-17T06:36:56.134Z,11.00
2023-04-17T06:41:59.561Z,9.57
2023-04-17T06:47:04.964Z,8.60
2023-04-17T06:52:07.316Z,10.30
2023-04-17T06:57:12.508Z,17.20
2023-04-17T07:02:15.186Z,7.25
2023-04-17T07:07:18.379Z,9.82
2023-04-17T07:12:22.917Z,6.50
2023-04-17T07:17:27.425Z,9.32
2023-04-17T07:22:31.215Z,9.45
2023-04-17T07:27:35.019Z,8.32
2023-04-17T07:32:38.431Z,8.85
2023-04-17T07:37:40.751Z,12.70
2023-04-17T07:42:43.576Z,4.90
2023-04-17T07:47:47.295Z,6.45
2023-04-17T07:52:50.669Z,4.50
2023-04-17T07:57:53.508Z,3.78
2023-04-17T08:02:56.226Z,9.90
2023-04-17T08:08:02.667Z,10.23
2023-04-17T08:13:04.974Z,5.22
2023-04-17T08:18:10.166Z,4.63
2023-04-17T08:23:14.366Z,5.00
2023-04-17T08:28:17.063Z,4.03
2023-04-17T08:33:20.018Z,9.43
2023-04-17T08:38:23.007Z,16.02
2023-04-17T08:43:29.556Z,12.45
2023-04-17T08:48:32.114Z,5.53
2023-04-17T08:53:35.609Z,7.75
2023-04-17T08:58:39.948Z,5.13
2023-04-17T09:03:45.589Z,7.25
2023-04-17T09:08:58.869Z,4.40
2023-04-17T09:14:03.123Z,4.15
2023-04-17T09:19:10.312Z,8.63
2023-04-17T09:24:13.224Z,6.13
2023-04-17T09:29:15.966Z,5.50
2023-04-17T09:34:21.666Z,3.42
2023-04-17T09:39:25.770Z,3.72
2023-04-17T09:44:30.396Z,4.03
2023-04-17T09:49:49.879Z,8.20
2023-04-17T09:54:54.595Z,3.65
2023-04-17T10:00:02.103Z,4.53
2023-04-17T10:05:11.959Z,6.18
2023-04-17T10:10:31.401Z,4.88
2023-04-17T10:15:35.047Z,4.25
2023-04-17T10:20:39.057Z,7.85
2023-04-17T10:25:43.233Z,7.47
2023-04-17T10:30:55.701Z,4.85
2023-04-17T10:35:59.437Z,5.07
2023-04-17T10:41:04.470Z,7.90
2023-04-17T10:46:10.350Z,4.82
2023-04-17T10:51:22.606Z,3.85
2023-04-17T10:56:51.085Z,5.13
2023-04-17T11:01:58.182Z,8.20
2023-04-17T11:07:02.022Z,2.97
2023-04-17T11:12:06.521Z,5.13
2023-04-17T11:17:10.349Z,5.07
2023-04-17T11:22:13.811Z,5.80
2023-04-17T11:27:16.184Z,4.97
2023-04-17T11:32:19.047Z,6.95
2023-04-17T11:37:21.904Z,5.25
2023-04-17T11:42:28.130Z,5.32
2023-04-17T11:47:31.568Z,6.63
2023-04-17T11:52:37.458Z,6.05
2023-04-17T11:57:46.663Z,8.80
2023-04-17T12:02:50.905Z,3.83
2023-04-17T12:08:02.130Z,3.75
2023-04-17T12:13:05.324Z,4.30
2023-04-17T12:18:11.277Z,4.07
2023-04-17T12:23:14.271Z,6.00
2023-04-17T12:28:18.130Z,8.27
2023-04-17T12:33:21.119Z,6.82
2023-04-17T12:38:24.030Z,4.80
2023-04-17T12:43:26.996Z,7.35
2023-04-17T12:48:31.378Z,4.57
2023-04-17T12:53:35.168Z,7.78
2023-04-17T12:58:39.980Z,3.25
2023-04-17T13:08:46.546Z,3.97
2023-04-17T13:13:48.769Z,5.38
2023-04-17T13:18:51.596Z,9.15
2023-04-17T13:23:53.883Z,4.63
2023-04-17T13:28:57.465Z,6.18
2023-04-17T13:33:59.713Z,3.97
2023-04-17T13:39:02.278Z,4.22
2023-04-17T13:44:04.895Z,5.78
2023-04-17T13:49:08.128Z,4.93
2023-04-17T13:54:10.985Z,6.28
2023-04-17T13:59:15.136Z,7.13
2023-04-17T14:04:18.398Z,3.70
2023-04-17T14:09:21.741Z,4.10
2023-04-17T14:14:24.138Z,9.93
2023-04-17T14:19:26.798Z,10.43
2023-04-17T14:24:29.628Z,6.43
2023-04-17T14:29:32.971Z,8.30
2023-04-17T14:34:35.790Z,5.63
2023-04-17T14:39:38.735Z,4.57
2023-04-17T14:44:43.716Z,7.85
2023-04-17T14:49:46.116Z,5.72
2023-04-17T14:54:48.919Z,5.10
2023-04-17T14:59:52.143Z,9.18
2023-04-17T15:04:55.238Z,10.43
2023-04-17T15:09:57.573Z,8.75
2023-04-17T15:14:59.982Z,10.20
2023-04-17T15:20:02.431Z,6.75
2023-04-17T15:25:06.044Z,5.95
2023-04-17T15:30:09.689Z,9.05
2023-04-17T15:35:12.141Z,8.88
2023-04-17T15:40:14.494Z,10.90
2023-04-17T15:45:16.887Z,13.30
2023-04-17T15:50:20.512Z,8.10
2023-04-17T15:55:23.060Z,24.30
2023-04-17T16:00:25.955Z,8.38
2023-04-17T16:05:30.450Z,16.38
2023-04-17T16:10:34.967Z,23.20
2023-04-17T16:15:37.221Z,19.48
2023-04-17T16:20:39.844Z,23.30
2023-04-17T16:25:42.401Z,23.55
2023-04-17T16:30:44.665Z,27.50
2023-04-17T16:35:47.523Z,17.60
2023-04-17T16:40:50.225Z,16.98
2023-04-17T16:45:52.665Z,21.60
2023-04-17T16:50:57.087Z,19.73
2023-04-17T16:55:59.568Z,29.83
2023-04-17T17:01:01.817Z,29.92
2023-04-17T17:06:07.267Z,47.60
2023-04-17T17:16:12.602Z,26.00
2023-04-17T17:21:15.755Z,24.23
2023-04-17T17:26:18.608Z,20.48
2023-04-17T17:31:21.870Z,20.25
2023-04-17T17:36:24.501Z,25.70
2023-04-17T17:41:26.803Z,26.70
2023-04-17T17:46:30.849Z,27.80
2023-04-17T17:51:33.262Z,20.27
2023-04-17T17:56:35.537Z,22.13
2023-04-17T18:01:40.555Z,27.33
2023-04-17T18:06:42.998Z,32.50
2023-04-17T18:11:45.740Z,44.22
2023-04-17T18:16:48.843Z,51.92
2023-04-17T18:21:51.828Z,47.33
2023-04-17T18:26:54.325Z,36.25
2023-04-17T18:31:56.629Z,45.13
2023-04-17T18:37:00.626Z,39.78
2023-04-17T18:42:03.880Z,57.67
2023-04-17T18:47:06.784Z,60.05
2023-04-17T18:52:09.302Z,43.35
2023-04-17T18:57:11.516Z,29.45
2023-04-17T19:02:13.940Z,21.65
2023-04-17T19:07:16.137Z,10.68
2023-04-17T19:12:18.441Z,3.75
2023-04-17T19:17:20.830Z,7.15
2023-04-17T19:22:23.547Z,7.43
2023-04-17T19:27:27.014Z,8.20
2023-04-17T19:32:31.544Z,5.45
2023-04-17T19:37:34.860Z,5.90
2023-04-17T19:42:37.499Z,7.95
2023-04-17T19:47:40.681Z,9.98
2023-04-17T19:52:43.981Z,8.27
2023-04-17T19:57:48.453Z,11.30
2023-04-17T20:02:51.283Z,15.32
2023-04-17T20:07:54.549Z,13.15
2023-04-17T20:12:57.350Z,23.40
2023-04-17T20:18:00.888Z,19.45
2023-04-17T20:23:04.149Z,22.23
2023-04-17T20:28:06.562Z,16.85
2023-04-17T20:33:09.621Z,15.27
2023-04-17T20:38:12.450Z,8.50
2023-04-17T20:43:15.233Z,5.43
2023-04-17T20:48:17.607Z,4.55
2023-04-17T20:53:20.552Z,7.22
2023-04-17T20:58:24.924Z,6.90
2023-04-17T21:03:29.750Z,4.03
2023-04-17T21:08:33.269Z,7.90
2023-04-17T21:13:35.556Z,7.57
2023-04-17T21:18:38.985Z,6.53
2023-04-17T21:23:41.263Z,6.88
2023-04-17T21:28:44.098Z,4.65
2023-04-17T21:33:46.887Z,6.35
2023-04-17T21:38:49.638Z,5.90
2023-04-17T21:43:54.769Z,6.63
2023-04-17T21:48:57.184Z,3.03
2023-04-17T21:54:01.071Z,2.55
2023-04-17T21:59:04.430Z,2.60
2023-04-17T22:04:06.810Z,3.22
2023-04-17T22:09:10.104Z,3.78
2023-04-17T22:14:13.050Z,1.75
2023-04-17T22:19:16.254Z,3.33
2023-04-17T22:24:18.978Z,5.35
2023-04-17T22:29:21.261Z,3.45
2023-04-17T22:34:24.855Z,3.28
2023-04-17T22:39:27.575Z,3.70
2023-04-17T22:44:30.534Z,3.58
2023-04-17T22:49:38.724Z,3.88
2023-04-17T22:54:43.035Z,3.10
2023-04-17T22:59:46.498Z,3.65
2023-04-17T23:04:49.870Z,6.15
2023-04-17T23:09:52.567Z,5.38
2023-04-17T23:14:54.863Z,3.38
2023-04-17T23:19:57.177Z,3.17
2023-04-17T23:25:00.535Z,5.85
2023-04-17T23:30:04.338Z,5.70
2023-04-17T23:35:07.668Z,7.60
2023-04-17T23:40:10.291Z,7.20
2023-04-17T23:45:12.790Z,5.50
2023-04-17T23:50:15.319Z,4.35
2023-04-17T23:55:17.550Z,4.95
